New Journey — H8CV — position and weather

sailwx.info

Track history (hours):
 
Tides and Currents Weather Stations Pressure Air Temp Water Temp Dewpoint Dewpoint Depression Visibility Wind Speed Wind Dir Waves Ship Positions

New Journey

Last reported at 2018-Apr-21 20:29 UTC. Time now 2018-Apr-23 13:34 UTC.
Position N 38°01' W 121°49'.

Length 176 m; draft 7.9 m.

Type: Cargo ship. MMSI: 356548000.

Date/timePositionNaut miles runAvg speedWind from/ knotsBaromVisibWave heightAir tempDewpointWater temp
2018-Apr-21 20:29N 38°01' W 121°49'3 6.6
2018-Apr-21 19:59N 38°02' W 121°53'7 9.2
2018-Apr-21 19:11N 38°04' W 122°02'2 8.7
2018-Apr-21 18:56N 38°03' W 122°05'3 7.0
2018-Apr-21 18:30N 38°02' W 122°08'4 8.3
2018-Apr-21 17:59N 38°04' W 122°13'5 9.5
2018-Apr-21 17:30N 38°03' W 122°19'5 9.7
2018-Apr-21 17:01N 38°01' W 122°24'5 9.3
2018-Apr-21 16:30N 37°57' W 122°27'5 9.5
2018-Apr-21 16:01N 37°52' W 122°25'713.3
2018-Apr-21 15:30N 37°46' W 122°21'1 1.5
2018-Apr-21 15:00N 37°46' W 122°20'0 0.0
2018-Apr-21 14:30N 37°46' W 122°20'0 0.0
2018-Apr-21 14:00N 37°46' W 122°20'0 0.0
2018-Apr-21 13:30N 37°46' W 122°20'0 0.1
2018-Apr-21 13:00N 37°46' W 122°20'0 0.1
2018-Apr-21 12:30N 37°46' W 122°20'0 0.4
2018-Apr-21 12:00N 37°46' W 122°20'0 0.1
2018-Apr-21 11:30N 37°45' W 122°20'0 0.0
2018-Apr-21 11:00N 37°45' W 122°20'0 0.0
2018-Apr-21 10:30N 37°45' W 122°20'0 0.0
2018-Apr-21 10:00N 37°45' W 122°20'0 0.0
2018-Apr-21 09:30N 37°45' W 122°20'0 0.0
2018-Apr-21 09:00N 37°45' W 122°20'0 0.0
2018-Apr-21 08:30N 37°45' W 122°20'0 0.0
2018-Apr-21 08:00N 37°45' W 122°20'0 0.0
2018-Apr-21 07:30N 37°45' W 122°20'0 0.1
2018-Apr-21 07:00N 37°46' W 122°20'0 0.2
2018-Apr-21 06:30N 37°46' W 122°20'0 0.1
2018-Apr-21 06:00N 37°46' W 122°20'0 0.1
2018-Apr-21 05:30N 37°46' W 122°20'0 0.1
2018-Apr-21 05:00N 37°46' W 122°20'0 0.0
2018-Apr-21 04:30N 37°46' W 122°20'0 0.0
2018-Apr-21 04:00N 37°46' W 122°20'0 0.1
2018-Apr-21 03:30N 37°46' W 122°20'0 0.0
2018-Apr-21 03:00N 37°46' W 122°20'0 0.0
2018-Apr-21 02:30N 37°46' W 122°20'0 0.1
2018-Apr-21 02:00N 37°46' W 122°20'0 0.1
2018-Apr-21 01:30N 37°46' W 122°20'0 0.1
2018-Apr-21 01:00N 37°46' W 122°20'0 0.1
2018-Apr-21 00:30N 37°46' W 122°20'0 0.2
2018-Apr-21 00:00N 37°45' W 122°20'0 0.0
2018-Apr-20 23:30N 37°45' W 122°20'0 0.1
2018-Apr-20 23:00N 37°45' W 122°20'0 0.1
2018-Apr-20 22:30N 37°45' W 122°20'0 0.1
2018-Apr-20 22:00N 37°45' W 122°20'0 0.1
2018-Apr-20 21:30N 37°45' W 122°20'0 0.0
2018-Apr-20 21:00N 37°45' W 122°20'0 0.0
2018-Apr-20 20:30N 37°45' W 122°20'0 0.0
2018-Apr-20 20:00N 37°45' W 122°20'0 0.1
2018-Apr-20 19:30N 37°45' W 122°20'0 0.0
2018-Apr-20 19:00N 37°45' W 122°20'0 0.0
2018-Apr-20 18:30N 37°45' W 122°20'0 0.3
2018-Apr-20 18:00N 37°46' W 122°20'0 0.2
2018-Apr-20 17:30N 37°46' W 122°20'0 0.0
2018-Apr-20 17:00N 37°46' W 122°20'0 0.0
2018-Apr-20 16:30N 37°46' W 122°20'0 0.0
2018-Apr-20 16:00N 37°46' W 122°20'0 0.0
2018-Apr-20 15:30N 37°46' W 122°20'0 0.0
2018-Apr-20 15:00N 37°46' W 122°20'0 0.0
2018-Apr-20 14:30N 37°46' W 122°20'0 0.0
2018-Apr-20 14:00N 37°46' W 122°20'0 0.1
2018-Apr-20 13:30N 37°46' W 122°20'0 0.0
2018-Apr-20 13:00N 37°46' W 122°20'0 0.0
2018-Apr-20 12:30N 37°46' W 122°20'0 0.0
2018-Apr-20 12:00N 37°46' W 122°20'0 0.0
2018-Apr-20 11:30N 37°46' W 122°20'0 0.3
2018-Apr-20 11:00N 37°45' W 122°20'0 0.1
2018-Apr-20 10:30N 37°45' W 122°20'0 0.0
2018-Apr-20 10:00N 37°45' W 122°20'0 0.0
2018-Apr-20 09:30N 37°45' W 122°20'0 0.0
2018-Apr-20 09:00N 37°45' W 122°20'0 0.0
2018-Apr-20 08:30N 37°45' W 122°20'0 0.0
2018-Apr-20 08:00N 37°45' W 122°20'0 0.0
2018-Apr-20 07:30N 37°45' W 122°20'0 0.1
2018-Apr-20 07:00N 37°45' W 122°20'0 0.0
2018-Apr-20 06:30N 37°45' W 122°20'0 0.0
2018-Apr-20 06:00N 37°45' W 122°20'0 0.0
2018-Apr-20 05:30N 37°45' W 122°20'0 0.2
2018-Apr-20 05:00N 37°46' W 122°20'0 0.3
2018-Apr-20 04:30N 37°46' W 122°20'0 0.1
2018-Apr-20 04:00N 37°46' W 122°20'0 0.0
2018-Apr-20 03:30N 37°46' W 122°20'0 0.0
2018-Apr-20 03:00N 37°46' W 122°20'0 0.0
2018-Apr-20 02:30N 37°46' W 122°20'0 0.0
2018-Apr-20 02:00N 37°46' W 122°20'0 0.0
2018-Apr-20 01:30N 37°46' W 122°20'0 0.1
2018-Apr-20 01:00N 37°46' W 122°20'0 0.1
2018-Apr-20 00:30N 37°46' W 122°20'0 0.2
2018-Apr-20 00:00N 37°46' W 122°20'0 0.1
2018-Apr-19 23:30N 37°46' W 122°20'0 0.1
2018-Apr-19 23:00N 37°45' W 122°20'0 0.0
2018-Apr-19 22:30N 37°45' W 122°20'0 0.0
2018-Apr-19 22:00N 37°45' W 122°20'0 0.0
2018-Apr-19 21:30N 37°45' W 122°20'0 0.0
2018-Apr-19 21:00N 37°45' W 122°20'0 0.1
2018-Apr-19 20:30N 37°45' W 122°20'0 0.0
2018-Apr-19 20:00N 37°45' W 122°20'0 0.0
2018-Apr-19 19:30N 37°45' W 122°20'0 0.0
2018-Apr-19 19:00N 37°45' W 122°20'0 0.0
2018-Apr-19 18:30N 37°45' W 122°20'0 0.0
2018-Apr-19 17:57N 37°45' W 122°20'0 0.0
2018-Apr-19 17:30N 37°45' W 122°20'0 0.3
2018-Apr-19 17:00N 37°46' W 122°20'0 0.2
2018-Apr-19 16:30N 37°46' W 122°20'0 0.0
2018-Apr-19 16:00N 37°46' W 122°20'0 0.0
2018-Apr-19 15:30N 37°46' W 122°20'0 0.0
2018-Apr-19 15:00N 37°46' W 122°20'0 0.0
2018-Apr-19 14:30N 37°46' W 122°20'0 0.0
2018-Apr-19 14:00N 37°46' W 122°20'0 0.0
2018-Apr-19 13:30N 37°46' W 122°20'0 0.0
2018-Apr-19 13:00N 37°46' W 122°20'0 0.0
2018-Apr-19 12:30N 37°46' W 122°20'0 0.0
2018-Apr-19 12:00N 37°46' W 122°20'0 0.1
2018-Apr-19 11:30N 37°46' W 122°20'0 0.0
2018-Apr-19 11:00N 37°46' W 122°20'0 0.3
2018-Apr-19 10:30N 37°45' W 122°20'0 0.3
2018-Apr-19 10:00N 37°45' W 122°20'0 0.0
2018-Apr-19 09:30N 37°45' W 122°20'0 0.0
2018-Apr-19 09:00N 37°45' W 122°20'0 0.0
2018-Apr-19 08:30N 37°45' W 122°20'0 0.0
2018-Apr-19 08:00N 37°45' W 122°20'0 0.0
2018-Apr-19 07:30N 37°45' W 122°20'0 0.0
2018-Apr-19 07:00N 37°45' W 122°20'0 0.0
2018-Apr-19 06:30N 37°45' W 122°20'0 0.0
2018-Apr-19 06:00N 37°45' W 122°20'0 0.0
2018-Apr-19 05:30N 37°45' W 122°20'0 0.0
2018-Apr-19 05:00N 37°45' W 122°20'1 1.4
2018-Apr-19 04:30N 37°45' W 122°21'510.4
2018-Apr-19 04:00N 37°49' W 122°26'611.1
2018-Apr-19 03:30N 37°47' W 122°33'510.9
2018-Apr-19 03:00N 37°46' W 122°39'510.1
2018-Apr-19 02:30N 37°46' W 122°45'4 7.4
2018-Apr-19 02:00N 37°48' W 122°50'4 7.7
2018-Apr-19 01:30N 37°49' W 122°54'4 7.5
2018-Apr-19 01:00N 37°51' W 122°58'4 7.8
2018-Apr-19 00:30N 37°53' W 123°02'510.1
2018-Apr-19 00:00N 37°56' W 123°08'510.2
2018-Apr-18 23:30N 37°59' W 123°13'5 9.1
2018-Apr-18 23:00N 38°03' W 123°16'510.5
2018-Apr-18 22:29N 38°07' W 123°21'611.8
2018-Apr-18 22:00N 38°10' W 123°27'611.8
2018-Apr-18 21:30N 38°12' W 123°34'511.0
2018-Apr-18 21:00N 38°15' W 123°40'4 7.8
2018-Apr-18 20:30N 38°16' W 123°45'611.3
2018-Apr-18 20:00N 38°19' W 123°51'611.5
2018-Apr-18 19:30N 38°21' W 123°58'611.8
2018-Apr-18 19:00N 38°24' W 124°05'41312.0
2018-Apr-17 08:34N 45°16' W 124°27'212.2
2018-Apr-17 08:25N 45°18' W 124°27'512.1
2018-Apr-17 07:58N 45°23' W 124°25'612.1
2018-Apr-17 07:30N 45°29' W 124°24'912.6
2018-Apr-17 06:50N 45°37' W 124°21'413.0
2018-Apr-17 06:30N 45°41' W 124°19'1512.7
2018-Apr-17 05:21N 45°56' W 124°15'413.1
2018-Apr-17 05:00N 45°60' W 124°13'713.1
2018-Apr-17 04:30N 46°06' W 124°12'510.8
2018-Apr-17 04:00N 46°11' W 124°09'5 9.9
2018-Apr-17 03:30N 46°15' W 124°04'612.9
2018-Apr-17 03:00N 46°12' W 123°56'510.9
2018-Apr-17 02:30N 46°12' W 123°48'612.4
2018-Apr-17 02:01N 46°15' W 123°41'714.4
2018-Apr-17 01:31N 46°16' W 123°30'611.5
2018-Apr-17 01:00N 46°11' W 123°26'711.6
2018-Apr-17 00:24N 46°09' W 123°16'514.1
2018-Apr-17 00:00N 46°11' W 123°09'813.6
2018-Apr-16 23:24N 46°07' W 122°59'2 4.5
2018-Apr-16 23:00N 46°06' W 122°57'0 0.0
2018-Apr-16 22:29N 46°06' W 122°57'0 0.0
2018-Apr-16 21:56N 46°06' W 122°57'0 0.0
2018-Apr-16 21:26N 46°06' W 122°57'0 0.0
2018-Apr-16 20:59N 46°06' W 122°57'0 0.0
2018-Apr-16 20:20N 46°06' W 122°57'0 0.0
2018-Apr-16 19:47N 46°06' W 122°57'0 0.0
2018-Apr-16 19:26N 46°06' W 122°57'0 0.0
2018-Apr-16 18:56N 46°06' W 122°57'0 0.0
2018-Apr-16 18:29N 46°06' W 122°57'0 0.0
2018-Apr-16 17:59N 46°06' W 122°57'0 0.0
2018-Apr-16 17:26N 46°06' W 122°57'0 0.0
2018-Apr-16 16:20N 46°06' W 122°57'0 0.0
2018-Apr-16 15:53N 46°06' W 122°57'0 0.0
2018-Apr-16 15:11N 46°06' W 122°57'0 0.0
2018-Apr-16 14:59N 46°06' W 122°57'0 0.0
2018-Apr-16 14:26N 46°06' W 122°57'0 0.0
2018-Apr-16 13:59N 46°06' W 122°57'0 0.0
2018-Apr-16 13:29N 46°06' W 122°57'0 0.0
2018-Apr-16 12:53N 46°06' W 122°57'0 0.0
2018-Apr-16 12:29N 46°06' W 122°57'0 0.0
2018-Apr-16 11:59N 46°06' W 122°57'0 0.0
2018-Apr-16 11:29N 46°06' W 122°57'0 0.0
2018-Apr-16 10:56N 46°06' W 122°57'0 0.0
2018-Apr-16 10:29N 46°06' W 122°57'0 0.0
2018-Apr-16 09:59N 46°06' W 122°57'0 0.0
2018-Apr-16 09:29N 46°06' W 122°57'0 0.0
2018-Apr-16 08:56N 46°06' W 122°57'0 0.0
2018-Apr-16 08:29N 46°06' W 122°57'0 0.0
2018-Apr-16 07:59N 46°06' W 122°57'0 0.0
2018-Apr-16 07:29N 46°06' W 122°57'0 0.0
2018-Apr-16 06:59N 46°06' W 122°57'0 0.0
2018-Apr-16 06:29N 46°06' W 122°57'0 0.0
2018-Apr-16 05:59N 46°06' W 122°57'0 0.0
2018-Apr-16 05:29N 46°06' W 122°57'0 0.0
2018-Apr-16 04:59N 46°06' W 122°57'0 0.0
2018-Apr-16 04:29N 46°06' W 122°57'0 0.0
2018-Apr-16 03:59N 46°06' W 122°57'0 0.0
2018-Apr-16 03:29N 46°06' W 122°57'0 0.0
2018-Apr-16 02:59N 46°06' W 122°57'0 0.0
2018-Apr-16 02:29N 46°06' W 122°57'0 0.0
2018-Apr-16 01:59N 46°06' W 122°57'0 0.0
2018-Apr-16 01:29N 46°06' W 122°57'0 0.0
2018-Apr-16 00:56N 46°06' W 122°57'0 0.0
2018-Apr-16 00:29N 46°06' W 122°57'0 0.0
2018-Apr-15 23:59N 46°06' W 122°57'0 0.0
2018-Apr-15 23:29N 46°06' W 122°57'0 0.0
2018-Apr-15 22:56N 46°06' W 122°57'0 0.0
2018-Apr-15 22:29N 46°06' W 122°57'0 0.0
2018-Apr-15 21:59N 46°06' W 122°57'0 0.0
2018-Apr-15 21:29N 46°06' W 122°57'0 0.0
2018-Apr-15 20:56N 46°06' W 122°57'0 0.0
2018-Apr-15 20:29N 46°06' W 122°57'0 0.0
2018-Apr-15 19:59N 46°06' W 122°57'0 0.0
2018-Apr-15 19:29N 46°06' W 122°57'0 0.0
2018-Apr-15 18:56N 46°06' W 122°57'0 0.0
2018-Apr-15 18:26N 46°06' W 122°57'0 0.0
2018-Apr-15 17:59N 46°06' W 122°57'0 0.0
2018-Apr-15 17:29N 46°06' W 122°57'0 0.0
2018-Apr-15 16:59N 46°06' W 122°57'0 0.0
2018-Apr-15 16:29N 46°06' W 122°57'0 0.0
2018-Apr-15 15:56N 46°06' W 122°57'0 0.0
2018-Apr-15 15:29N 46°06' W 122°57'0 0.0
2018-Apr-15 14:59N 46°06' W 122°57'0 0.0
2018-Apr-15 14:29N 46°06' W 122°57'0 0.0
2018-Apr-15 13:59N 46°06' W 122°57'0 0.0
2018-Apr-15 13:26N 46°06' W 122°57'0 0.0
2018-Apr-15 12:59N 46°06' W 122°57'0 0.0
2018-Apr-15 12:29N 46°06' W 122°57'0 0.0
2018-Apr-15 11:59N 46°06' W 122°57'0 0.0
2018-Apr-15 11:29N 46°06' W 122°57'0 0.0
2018-Apr-15 10:53N 46°06' W 122°57'0 0.0
2018-Apr-15 10:29N 46°06' W 122°57'0 0.0
2018-Apr-15 09:11N 46°06' W 122°57'0 0.0
2018-Apr-15 08:59N 46°06' W 122°57'0 0.0
2018-Apr-15 08:29N 46°06' W 122°57'0 0.0
2018-Apr-15 07:59N 46°06' W 122°57'0 0.0
2018-Apr-15 07:29N 46°06' W 122°57'0 0.0
2018-Apr-15 06:59N 46°06' W 122°57'0 0.1
2018-Apr-15 06:29N 46°06' W 122°57'0 0.1
2018-Apr-15 05:59N 46°06' W 122°57'0 0.0
2018-Apr-15 05:29N 46°06' W 122°57'0 0.0
2018-Apr-15 04:59N 46°06' W 122°57'0 0.0
2018-Apr-15 04:26N 46°06' W 122°57'0 0.0
2018-Apr-15 03:59N 46°06' W 122°57'0 0.0
2018-Apr-15 03:29N 46°06' W 122°57'0 0.0
2018-Apr-15 02:59N 46°06' W 122°57'0 0.0
2018-Apr-15 02:23N 46°06' W 122°57'0 0.0
2018-Apr-15 01:59N 46°06' W 122°57'0 0.0
2018-Apr-15 01:23N 46°06' W 122°57'0 0.0
2018-Apr-15 00:59N 46°06' W 122°57'0 0.0
2018-Apr-15 00:26N 46°06' W 122°57'0 0.0
2018-Apr-14 23:59N 46°06' W 122°57'0 0.0
2018-Apr-14 23:29N 46°06' W 122°57'0 0.3
2018-Apr-14 23:00N 46°06' W 122°57'3 6.5
2018-Apr-14 22:30N 46°04' W 122°53'510.6
2018-Apr-14 22:00N 45°59' W 122°50'612.7
2018-Apr-14 21:31N 45°53' W 122°48'612.9
2018-Apr-14 21:00N 45°47' W 122°46'713.5
2018-Apr-14 20:30N 45°40' W 122°46'3 5.9
2018-Apr-14 20:00N 45°38' W 122°43'0 0.0
2018-Apr-14 19:27N 45°38' W 122°43'0 0.0
2018-Apr-14 18:57N 45°38' W 122°43'0 0.0
2018-Apr-14 18:27N 45°38' W 122°43'0 0.0
2018-Apr-14 17:57N 45°38' W 122°43'0 0.0
2018-Apr-14 17:27N 45°38' W 122°43'0 0.0
2018-Apr-14 16:57N 45°38' W 122°43'0 0.0
2018-Apr-14 16:27N 45°38' W 122°43'0 0.0
2018-Apr-14 15:57N 45°38' W 122°43'0 0.0
2018-Apr-14 15:27N 45°38' W 122°43'0 0.0
2018-Apr-14 14:51N 45°38' W 122°43'0 0.0
2018-Apr-14 14:09N 45°38' W 122°43'0 0.0
2018-Apr-14 13:57N 45°38' W 122°43'0 0.0
2018-Apr-14 12:51N 45°38' W 122°43'0 0.0
2018-Apr-14 12:27N 45°38' W 122°43'0 0.0
2018-Apr-14 11:57N 45°38' W 122°43'0 0.0
2018-Apr-14 11:27N 45°38' W 122°43'0 0.0
2018-Apr-14 10:51N 45°38' W 122°43'0 0.0
2018-Apr-14 09:51N 45°38' W 122°43'0 0.0
2018-Apr-14 08:51N 45°38' W 122°43'0 0.0
2018-Apr-14 08:27N 45°38' W 122°43'0 0.0
2018-Apr-14 07:51N 45°38' W 122°43'0 0.0
2018-Apr-14 07:27N 45°38' W 122°43'0 0.0
2018-Apr-14 06:51N 45°38' W 122°43'0 0.0
2018-Apr-14 06:27N 45°38' W 122°43'0 0.0
2018-Apr-14 05:39N 45°38' W 122°43'0 0.0
2018-Apr-14 05:21N 45°38' W 122°43'0 0.0
2018-Apr-14 04:45N 45°38' W 122°43'0 0.0
2018-Apr-14 04:21N 45°38' W 122°43'0 0.0
2018-Apr-14 03:45N 45°38' W 122°43'0 0.0
2018-Apr-14 03:21N 45°38' W 122°43'0 0.0
2018-Apr-14 02:51N 45°38' W 122°43'0 0.0
2018-Apr-14 02:27N 45°38' W 122°43'0 0.0
2018-Apr-14 01:57N 45°38' W 122°43'0 0.0
2018-Apr-14 01:27N 45°38' W 122°43'0 0.0
2018-Apr-14 00:45N 45°38' W 122°43'0 0.0
2018-Apr-14 00:21N 45°38' W 122°43'0 0.0
2018-Apr-13 23:57N 45°38' W 122°43'0 0.0
2018-Apr-13 22:51N 45°38' W 122°43'0 0.0
2018-Apr-13 21:51N 45°38' W 122°43'0 0.0
2018-Apr-13 21:21N 45°38' W 122°43'0 0.0
2018-Apr-13 20:45N 45°38' W 122°43'0 0.0
2018-Apr-13 20:27N 45°38' W 122°43'0 0.0
2018-Apr-13 19:57N 45°38' W 122°43'0 0.0
2018-Apr-13 19:27N 45°38' W 122°43'0 0.0
2018-Apr-13 18:57N 45°38' W 122°43'0 0.0
2018-Apr-13 18:09N 45°38' W 122°43'0 0.0
2018-Apr-13 17:57N 45°38' W 122°43'0 0.0
2018-Apr-13 17:15N 45°38' W 122°43'0 0.0
2018-Apr-13 16:33N 45°38' W 122°43'0 0.0
2018-Apr-13 15:27N 45°38' W 122°43'0 0.0
2018-Apr-13 14:51N 45°38' W 122°43'0 0.0
2018-Apr-13 14:15N 45°38' W 122°43'0 0.0
2018-Apr-13 13:51N 45°38' W 122°43'0 0.0
2018-Apr-13 13:21N 45°38' W 122°43'0 0.0
2018-Apr-13 12:51N 45°38' W 122°43'0 0.0
2018-Apr-13 12:27N 45°38' W 122°43'0 0.0
2018-Apr-13 11:57N 45°38' W 122°43'0 0.0
2018-Apr-13 11:21N 45°38' W 122°43'0 0.0
2018-Apr-13 10:57N 45°38' W 122°43'0 0.0
2018-Apr-13 10:09N 45°38' W 122°43'0 0.0
2018-Apr-13 09:57N 45°38' W 122°43'0 0.0
2018-Apr-13 09:27N 45°38' W 122°43'0 0.0
2018-Apr-13 08:57N 45°38' W 122°43'0 0.0
2018-Apr-13 08:27N 45°38' W 122°43'0 0.0
2018-Apr-13 07:57N 45°38' W 122°43'0 0.0
2018-Apr-13 07:27N 45°38' W 122°43'0 0.0
2018-Apr-13 06:57N 45°38' W 122°43'0 0.0
2018-Apr-13 06:21N 45°38' W 122°43'0 0.0
2018-Apr-13 05:57N 45°38' W 122°43'0 0.0
2018-Apr-13 05:27N 45°38' W 122°43'0 0.0
2018-Apr-13 04:57N 45°38' W 122°43'0 0.0
2018-Apr-13 04:27N 45°38' W 122°43'0 0.0
2018-Apr-13 03:45N 45°38' W 122°43'0 0.0
2018-Apr-13 03:15N 45°38' W 122°43'0 0.0
2018-Apr-13 02:51N 45°38' W 122°43'0 0.0
2018-Apr-13 02:27N 45°38' W 122°43'0 0.0
2018-Apr-13 01:57N 45°38' W 122°43'0 0.0
2018-Apr-13 01:21N 45°38' W 122°43'0 0.0
2018-Apr-13 00:51N 45°38' W 122°43'0 0.0
2018-Apr-13 00:27N 45°38' W 122°43'0 0.0
2018-Apr-12 23:45N 45°38' W 122°43'0 0.0
2018-Apr-12 23:27N 45°38' W 122°43'0 0.0
2018-Apr-12 22:33N 45°38' W 122°43'0 0.0
2018-Apr-12 22:27N 45°38' W 122°43'0 0.0
2018-Apr-12 21:51N 45°38' W 122°43'0 0.0
2018-Apr-12 21:21N 45°38' W 122°43'0 0.0
2018-Apr-12 20:33N 45°38' W 122°43'0 0.0
2018-Apr-12 20:15N 45°38' W 122°43'0 0.0
2018-Apr-12 19:57N 45°38' W 122°43'0 0.0
2018-Apr-12 19:27N 45°38' W 122°43'0 0.0
2018-Apr-12 18:51N 45°38' W 122°43'0 0.0
2018-Apr-12 18:15N 45°38' W 122°43'0 0.0
2018-Apr-12 17:39N 45°38' W 122°43'0 0.0
2018-Apr-12 17:27N 45°38' W 122°43'0 0.0
2018-Apr-12 16:51N 45°38' W 122°43'0 0.0
2018-Apr-12 16:27N 45°38' W 122°43'0 0.0
2018-Apr-12 15:39N 45°38' W 122°43'0 0.0
2018-Apr-12 15:21N 45°38' W 122°43'0 0.0
2018-Apr-12 14:57N 45°38' W 122°43'0 0.0
2018-Apr-12 14:27N 45°38' W 122°43'0 0.0
2018-Apr-12 13:45N 45°38' W 122°43'0 0.0
2018-Apr-12 13:27N 45°38' W 122°43'0 0.0
2018-Apr-12 12:57N 45°38' W 122°43'0 0.0
2018-Apr-12 12:27N 45°38' W 122°43'0 0.0
2018-Apr-12 11:51N 45°38' W 122°43'0 0.0
2018-Apr-12 11:21N 45°38' W 122°43'0 0.0
2018-Apr-12 10:57N 45°38' W 122°43'0 0.0
2018-Apr-12 10:15N 45°38' W 122°43'0 0.0
2018-Apr-12 09:27N 45°38' W 122°43'0 0.0
2018-Apr-12 08:51N 45°38' W 122°43'0 0.0
2018-Apr-12 08:21N 45°38' W 122°43'0 0.0
2018-Apr-12 07:51N 45°38' W 122°43'0 0.0
2018-Apr-12 07:27N 45°38' W 122°43'0 0.0
2018-Apr-12 06:57N 45°38' W 122°43'0 0.0
2018-Apr-12 06:27N 45°38' W 122°43'0 0.0
2018-Apr-12 05:45N 45°38' W 122°43'0 0.0
2018-Apr-12 05:27N 45°38' W 122°43'0 0.0
2018-Apr-12 04:51N 45°38' W 122°43'0 0.0
2018-Apr-12 04:27N 45°38' W 122°43'0 0.0
2018-Apr-12 03:21N 45°38' W 122°43'0 0.0
2018-Apr-12 02:57N 45°38' W 122°43'0 0.0
2018-Apr-12 01:51N 45°38' W 122°43'0 0.0
2018-Apr-12 01:27N 45°38' W 122°43'0 0.0
2018-Apr-12 00:51N 45°38' W 122°43'0 0.0
2018-Apr-12 00:21N 45°38' W 122°43'0 0.0
2018-Apr-11 23:51N 45°38' W 122°43'0 0.0
2018-Apr-11 23:03N 45°38' W 122°43'0 0.0
2018-Apr-11 22:45N 45°38' W 122°43'0 0.0
2018-Apr-11 22:21N 45°38' W 122°43'0 0.0
2018-Apr-11 21:57N 45°38' W 122°43'0 0.0
2018-Apr-11 21:27N 45°38' W 122°43'0 0.0
2018-Apr-11 20:51N 45°38' W 122°43'  
Track history (hours):
 
Tides and Currents Weather Stations Pressure Air Temp Water Temp Dewpoint Dewpoint Depression Visibility Wind Speed Wind Dir Waves Ship Positions

New Journey

Last reported at 2018-Apr-21 20:29 UTC. Time now 2018-Apr-23 13:34 UTC.
Position N 38°01' W 121°49'.

Length 176 m; draft 7.9 m.

Type: Cargo ship. MMSI: 356548000.

Date/timePositionNaut miles runAvg speedWind from/ knotsBaromVisibWave heightAir tempDewpointWater temp
2018-Apr-21 20:29N 38°01' W 121°49'3 6.6
2018-Apr-21 19:59N 38°02' W 121°53'7 9.2
2018-Apr-21 19:11N 38°04' W 122°02'2 8.7
2018-Apr-21 18:56N 38°03' W 122°05'3 7.0
2018-Apr-21 18:30N 38°02' W 122°08'4 8.3
2018-Apr-21 17:59N 38°04' W 122°13'5 9.5
2018-Apr-21 17:30N 38°03' W 122°19'5 9.7
2018-Apr-21 17:01N 38°01' W 122°24'5 9.3
2018-Apr-21 16:30N 37°57' W 122°27'5 9.5
2018-Apr-21 16:01N 37°52' W 122°25'713.3
2018-Apr-21 15:30N 37°46' W 122°21'1 1.5
2018-Apr-21 15:00N 37°46' W 122°20'0 0.0
2018-Apr-21 14:30N 37°46' W 122°20'0 0.0
2018-Apr-21 14:00N 37°46' W 122°20'0 0.0
2018-Apr-21 13:30N 37°46' W 122°20'0 0.1
2018-Apr-21 13:00N 37°46' W 122°20'0 0.1
2018-Apr-21 12:30N 37°46' W 122°20'0 0.4
2018-Apr-21 12:00N 37°46' W 122°20'0 0.1
2018-Apr-21 11:30N 37°45' W 122°20'0 0.0
2018-Apr-21 11:00N 37°45' W 122°20'0 0.0
2018-Apr-21 10:30N 37°45' W 122°20'0 0.0
2018-Apr-21 10:00N 37°45' W 122°20'0 0.0
2018-Apr-21 09:30N 37°45' W 122°20'0 0.0
2018-Apr-21 09:00N 37°45' W 122°20'0 0.0
2018-Apr-21 08:30N 37°45' W 122°20'0 0.0
2018-Apr-21 08:00N 37°45' W 122°20'0 0.0
2018-Apr-21 07:30N 37°45' W 122°20'0 0.1
2018-Apr-21 07:00N 37°46' W 122°20'0 0.2
2018-Apr-21 06:30N 37°46' W 122°20'0 0.1
2018-Apr-21 06:00N 37°46' W 122°20'0 0.1
2018-Apr-21 05:30N 37°46' W 122°20'0 0.1
2018-Apr-21 05:00N 37°46' W 122°20'0 0.0
2018-Apr-21 04:30N 37°46' W 122°20'0 0.0
2018-Apr-21 04:00N 37°46' W 122°20'0 0.1
2018-Apr-21 03:30N 37°46' W 122°20'0 0.0
2018-Apr-21 03:00N 37°46' W 122°20'0 0.0
2018-Apr-21 02:30N 37°46' W 122°20'0 0.1
2018-Apr-21 02:00N 37°46' W 122°20'0 0.1
2018-Apr-21 01:30N 37°46' W 122°20'0 0.1
2018-Apr-21 01:00N 37°46' W 122°20'0 0.1
2018-Apr-21 00:30N 37°46' W 122°20'0 0.2
2018-Apr-21 00:00N 37°45' W 122°20'0 0.0
2018-Apr-20 23:30N 37°45' W 122°20'0 0.1
2018-Apr-20 23:00N 37°45' W 122°20'0 0.1
2018-Apr-20 22:30N 37°45' W 122°20'0 0.1
2018-Apr-20 22:00N 37°45' W 122°20'0 0.1
2018-Apr-20 21:30N 37°45' W 122°20'0 0.0
2018-Apr-20 21:00N 37°45' W 122°20'0 0.0
2018-Apr-20 20:30N 37°45' W 122°20'0 0.0
2018-Apr-20 20:00N 37°45' W 122°20'0 0.1
2018-Apr-20 19:30N 37°45' W 122°20'0 0.0
2018-Apr-20 19:00N 37°45' W 122°20'0 0.0
2018-Apr-20 18:30N 37°45' W 122°20'0 0.3
2018-Apr-20 18:00N 37°46' W 122°20'0 0.2
2018-Apr-20 17:30N 37°46' W 122°20'0 0.0
2018-Apr-20 17:00N 37°46' W 122°20'0 0.0
2018-Apr-20 16:30N 37°46' W 122°20'0 0.0
2018-Apr-20 16:00N 37°46' W 122°20'0 0.0
2018-Apr-20 15:30N 37°46' W 122°20'0 0.0
2018-Apr-20 15:00N 37°46' W 122°20'0 0.0
2018-Apr-20 14:30N 37°46' W 122°20'0 0.0
2018-Apr-20 14:00N 37°46' W 122°20'0 0.1
2018-Apr-20 13:30N 37°46' W 122°20'0 0.0
2018-Apr-20 13:00N 37°46' W 122°20'0 0.0
2018-Apr-20 12:30N 37°46' W 122°20'0 0.0
2018-Apr-20 12:00N 37°46' W 122°20'0 0.0
2018-Apr-20 11:30N 37°46' W 122°20'0 0.3
2018-Apr-20 11:00N 37°45' W 122°20'0 0.1
2018-Apr-20 10:30N 37°45' W 122°20'0 0.0
2018-Apr-20 10:00N 37°45' W 122°20'0 0.0
2018-Apr-20 09:30N 37°45' W 122°20'0 0.0
2018-Apr-20 09:00N 37°45' W 122°20'0 0.0
2018-Apr-20 08:30N 37°45' W 122°20'0 0.0
2018-Apr-20 08:00N 37°45' W 122°20'0 0.0
2018-Apr-20 07:30N 37°45' W 122°20'0 0.1
2018-Apr-20 07:00N 37°45' W 122°20'0 0.0
2018-Apr-20 06:30N 37°45' W 122°20'0 0.0
2018-Apr-20 06:00N 37°45' W 122°20'0 0.0
2018-Apr-20 05:30N 37°45' W 122°20'0 0.2
2018-Apr-20 05:00N 37°46' W 122°20'0 0.3
2018-Apr-20 04:30N 37°46' W 122°20'0 0.1
2018-Apr-20 04:00N 37°46' W 122°20'0 0.0
2018-Apr-20 03:30N 37°46' W 122°20'0 0.0
2018-Apr-20 03:00N 37°46' W 122°20'0 0.0
2018-Apr-20 02:30N 37°46' W 122°20'0 0.0
2018-Apr-20 02:00N 37°46' W 122°20'0 0.0
2018-Apr-20 01:30N 37°46' W 122°20'0 0.1
2018-Apr-20 01:00N 37°46' W 122°20'0 0.1
2018-Apr-20 00:30N 37°46' W 122°20'0 0.2
2018-Apr-20 00:00N 37°46' W 122°20'0 0.1
2018-Apr-19 23:30N 37°46' W 122°20'0 0.1
2018-Apr-19 23:00N 37°45' W 122°20'0 0.0
2018-Apr-19 22:30N 37°45' W 122°20'0 0.0
2018-Apr-19 22:00N 37°45' W 122°20'0 0.0
2018-Apr-19 21:30N 37°45' W 122°20'0 0.0
2018-Apr-19 21:00N 37°45' W 122°20'0 0.1
2018-Apr-19 20:30N 37°45' W 122°20'0 0.0
2018-Apr-19 20:00N 37°45' W 122°20'0 0.0
2018-Apr-19 19:30N 37°45' W 122°20'0 0.0
2018-Apr-19 19:00N 37°45' W 122°20'0 0.0
2018-Apr-19 18:30N 37°45' W 122°20'0 0.0
2018-Apr-19 17:57N 37°45' W 122°20'0 0.0
2018-Apr-19 17:30N 37°45' W 122°20'0 0.3
2018-Apr-19 17:00N 37°46' W 122°20'0 0.2
2018-Apr-19 16:30N 37°46' W 122°20'0 0.0
2018-Apr-19 16:00N 37°46' W 122°20'0 0.0
2018-Apr-19 15:30N 37°46' W 122°20'0 0.0
2018-Apr-19 15:00N 37°46' W 122°20'0 0.0
2018-Apr-19 14:30N 37°46' W 122°20'0 0.0
2018-Apr-19 14:00N 37°46' W 122°20'0 0.0
2018-Apr-19 13:30N 37°46' W 122°20'0 0.0
2018-Apr-19 13:00N 37°46' W 122°20'0 0.0
2018-Apr-19 12:30N 37°46' W 122°20'0 0.0
2018-Apr-19 12:00N 37°46' W 122°20'0 0.1
2018-Apr-19 11:30N 37°46' W 122°20'0 0.0
2018-Apr-19 11:00N 37°46' W 122°20'0 0.3
2018-Apr-19 10:30N 37°45' W 122°20'0 0.3
2018-Apr-19 10:00N 37°45' W 122°20'0 0.0
2018-Apr-19 09:30N 37°45' W 122°20'0 0.0
2018-Apr-19 09:00N 37°45' W 122°20'0 0.0
2018-Apr-19 08:30N 37°45' W 122°20'0 0.0
2018-Apr-19 08:00N 37°45' W 122°20'0 0.0
2018-Apr-19 07:30N 37°45' W 122°20'0 0.0
2018-Apr-19 07:00N 37°45' W 122°20'0 0.0
2018-Apr-19 06:30N 37°45' W 122°20'0 0.0
2018-Apr-19 06:00N 37°45' W 122°20'0 0.0
2018-Apr-19 05:30N 37°45' W 122°20'0 0.0
2018-Apr-19 05:00N 37°45' W 122°20'1 1.4
2018-Apr-19 04:30N 37°45' W 122°21'510.4
2018-Apr-19 04:00N 37°49' W 122°26'611.1
2018-Apr-19 03:30N 37°47' W 122°33'510.9
2018-Apr-19 03:00N 37°46' W 122°39'510.1
2018-Apr-19 02:30N 37°46' W 122°45'4 7.4
2018-Apr-19 02:00N 37°48' W 122°50'4 7.7
2018-Apr-19 01:30N 37°49' W 122°54'4 7.5
2018-Apr-19 01:00N 37°51' W 122°58'4 7.8
2018-Apr-19 00:30N 37°53' W 123°02'510.1
2018-Apr-19 00:00N 37°56' W 123°08'510.2
2018-Apr-18 23:30N 37°59' W 123°13'5 9.1
2018-Apr-18 23:00N 38°03' W 123°16'510.5
2018-Apr-18 22:29N 38°07' W 123°21'611.8
2018-Apr-18 22:00N 38°10' W 123°27'611.8
2018-Apr-18 21:30N 38°12' W 123°34'511.0
2018-Apr-18 21:00N 38°15' W 123°40'4 7.8
2018-Apr-18 20:30N 38°16' W 123°45'611.3
2018-Apr-18 20:00N 38°19' W 123°51'611.5
2018-Apr-18 19:30N 38°21' W 123°58'611.8
2018-Apr-18 19:00N 38°24' W 124°05'41312.0
2018-Apr-17 08:34N 45°16' W 124°27'212.2
2018-Apr-17 08:25N 45°18' W 124°27'512.1
2018-Apr-17 07:58N 45°23' W 124°25'612.1
2018-Apr-17 07:30N 45°29' W 124°24'912.6
2018-Apr-17 06:50N 45°37' W 124°21'413.0
2018-Apr-17 06:30N 45°41' W 124°19'1512.7
2018-Apr-17 05:21N 45°56' W 124°15'413.1
2018-Apr-17 05:00N 45°60' W 124°13'713.1
2018-Apr-17 04:30N 46°06' W 124°12'510.8
2018-Apr-17 04:00N 46°11' W 124°09'5 9.9
2018-Apr-17 03:30N 46°15' W 124°04'612.9
2018-Apr-17 03:00N 46°12' W 123°56'510.9
2018-Apr-17 02:30N 46°12' W 123°48'612.4
2018-Apr-17 02:01N 46°15' W 123°41'714.4
2018-Apr-17 01:31N 46°16' W 123°30'611.5
2018-Apr-17 01:00N 46°11' W 123°26'711.6
2018-Apr-17 00:24N 46°09' W 123°16'514.1
2018-Apr-17 00:00N 46°11' W 123°09'813.6
2018-Apr-16 23:24N 46°07' W 122°59'2 4.5
2018-Apr-16 23:00N 46°06' W 122°57'0 0.0
2018-Apr-16 22:29N 46°06' W 122°57'0 0.0
2018-Apr-16 21:56N 46°06' W 122°57'0 0.0
2018-Apr-16 21:26N 46°06' W 122°57'0 0.0
2018-Apr-16 20:59N 46°06' W 122°57'0 0.0
2018-Apr-16 20:20N 46°06' W 122°57'0 0.0
2018-Apr-16 19:47N 46°06' W 122°57'0 0.0
2018-Apr-16 19:26N 46°06' W 122°57'0 0.0
2018-Apr-16 18:56N 46°06' W 122°57'0 0.0
2018-Apr-16 18:29N 46°06' W 122°57'0 0.0
2018-Apr-16 17:59N 46°06' W 122°57'0 0.0
2018-Apr-16 17:26N 46°06' W 122°57'0 0.0
2018-Apr-16 16:20N 46°06' W 122°57'0 0.0
2018-Apr-16 15:53N 46°06' W 122°57'0 0.0
2018-Apr-16 15:11N 46°06' W 122°57'0 0.0
2018-Apr-16 14:59N 46°06' W 122°57'0 0.0
2018-Apr-16 14:26N 46°06' W 122°57'0 0.0
2018-Apr-16 13:59N 46°06' W 122°57'0 0.0
2018-Apr-16 13:29N 46°06' W 122°57'0 0.0
2018-Apr-16 12:53N 46°06' W 122°57'0 0.0
2018-Apr-16 12:29N 46°06' W 122°57'0 0.0
2018-Apr-16 11:59N 46°06' W 122°57'0 0.0
2018-Apr-16 11:29N 46°06' W 122°57'0 0.0
2018-Apr-16 10:56N 46°06' W 122°57'0 0.0
2018-Apr-16 10:29N 46°06' W 122°57'0 0.0
2018-Apr-16 09:59N 46°06' W 122°57'0 0.0
2018-Apr-16 09:29N 46°06' W 122°57'0 0.0
2018-Apr-16 08:56N 46°06' W 122°57'0 0.0
2018-Apr-16 08:29N 46°06' W 122°57'0 0.0
2018-Apr-16 07:59N 46°06' W 122°57'0 0.0
2018-Apr-16 07:29N 46°06' W 122°57'0 0.0
2018-Apr-16 06:59N 46°06' W 122°57'0 0.0
2018-Apr-16 06:29N 46°06' W 122°57'0 0.0
2018-Apr-16 05:59N 46°06' W 122°57'0 0.0
2018-Apr-16 05:29N 46°06' W 122°57'0 0.0
2018-Apr-16 04:59N 46°06' W 122°57'0 0.0
2018-Apr-16 04:29N 46°06' W 122°57'0 0.0
2018-Apr-16 03:59N 46°06' W 122°57'0 0.0
2018-Apr-16 03:29N 46°06' W 122°57'0 0.0
2018-Apr-16 02:59N 46°06' W 122°57'0 0.0
2018-Apr-16 02:29N 46°06' W 122°57'0 0.0
2018-Apr-16 01:59N 46°06' W 122°57'0 0.0
2018-Apr-16 01:29N 46°06' W 122°57'0 0.0
2018-Apr-16 00:56N 46°06' W 122°57'0 0.0
2018-Apr-16 00:29N 46°06' W 122°57'0 0.0
2018-Apr-15 23:59N 46°06' W 122°57'0 0.0
2018-Apr-15 23:29N 46°06' W 122°57'0 0.0
2018-Apr-15 22:56N 46°06' W 122°57'0 0.0
2018-Apr-15 22:29N 46°06' W 122°57'0 0.0
2018-Apr-15 21:59N 46°06' W 122°57'0 0.0
2018-Apr-15 21:29N 46°06' W 122°57'0 0.0
2018-Apr-15 20:56N 46°06' W 122°57'0 0.0
2018-Apr-15 20:29N 46°06' W 122°57'0 0.0
2018-Apr-15 19:59N 46°06' W 122°57'0 0.0
2018-Apr-15 19:29N 46°06' W 122°57'0 0.0
2018-Apr-15 18:56N 46°06' W 122°57'0 0.0
2018-Apr-15 18:26N 46°06' W 122°57'0 0.0
2018-Apr-15 17:59N 46°06' W 122°57'0 0.0
2018-Apr-15 17:29N 46°06' W 122°57'0 0.0
2018-Apr-15 16:59N 46°06' W 122°57'0 0.0
2018-Apr-15 16:29N 46°06' W 122°57'0 0.0
2018-Apr-15 15:56N 46°06' W 122°57'0 0.0
2018-Apr-15 15:29N 46°06' W 122°57'0 0.0
2018-Apr-15 14:59N 46°06' W 122°57'0 0.0
2018-Apr-15 14:29N 46°06' W 122°57'0 0.0
2018-Apr-15 13:59N 46°06' W 122°57'0 0.0
2018-Apr-15 13:26N 46°06' W 122°57'0 0.0
2018-Apr-15 12:59N 46°06' W 122°57'0 0.0
2018-Apr-15 12:29N 46°06' W 122°57'0 0.0
2018-Apr-15 11:59N 46°06' W 122°57'0 0.0
2018-Apr-15 11:29N 46°06' W 122°57'0 0.0
2018-Apr-15 10:53N 46°06' W 122°57'0 0.0
2018-Apr-15 10:29N 46°06' W 122°57'0 0.0
2018-Apr-15 09:11N 46°06' W 122°57'0 0.0
2018-Apr-15 08:59N 46°06' W 122°57'0 0.0
2018-Apr-15 08:29N 46°06' W 122°57'0 0.0
2018-Apr-15 07:59N 46°06' W 122°57'0 0.0
2018-Apr-15 07:29N 46°06' W 122°57'0 0.0
2018-Apr-15 06:59N 46°06' W 122°57'0 0.1
2018-Apr-15 06:29N 46°06' W 122°57'0 0.1
2018-Apr-15 05:59N 46°06' W 122°57'0 0.0
2018-Apr-15 05:29N 46°06' W 122°57'0 0.0
2018-Apr-15 04:59N 46°06' W 122°57'0 0.0
2018-Apr-15 04:26N 46°06' W 122°57'0 0.0
2018-Apr-15 03:59N 46°06' W 122°57'0 0.0
2018-Apr-15 03:29N 46°06' W 122°57'0 0.0
2018-Apr-15 02:59N 46°06' W 122°57'0 0.0
2018-Apr-15 02:23N 46°06' W 122°57'0 0.0
2018-Apr-15 01:59N 46°06' W 122°57'0 0.0
2018-Apr-15 01:23N 46°06' W 122°57'0 0.0
2018-Apr-15 00:59N 46°06' W 122°57'0 0.0
2018-Apr-15 00:26N 46°06' W 122°57'0 0.0
2018-Apr-14 23:59N 46°06' W 122°57'0 0.0
2018-Apr-14 23:29N 46°06' W 122°57'0 0.3
2018-Apr-14 23:00N 46°06' W 122°57'3 6.5
2018-Apr-14 22:30N 46°04' W 122°53'510.6
2018-Apr-14 22:00N 45°59' W 122°50'612.7
2018-Apr-14 21:31N 45°53' W 122°48'612.9
2018-Apr-14 21:00N 45°47' W 122°46'713.5
2018-Apr-14 20:30N 45°40' W 122°46'3 5.9
2018-Apr-14 20:00N 45°38' W 122°43'0 0.0
2018-Apr-14 19:27N 45°38' W 122°43'0 0.0
2018-Apr-14 18:57N 45°38' W 122°43'0 0.0
2018-Apr-14 18:27N 45°38' W 122°43'0 0.0
2018-Apr-14 17:57N 45°38' W 122°43'0 0.0
2018-Apr-14 17:27N 45°38' W 122°43'0 0.0
2018-Apr-14 16:57N 45°38' W 122°43'0 0.0
2018-Apr-14 16:27N 45°38' W 122°43'0 0.0
2018-Apr-14 15:57N 45°38' W 122°43'0 0.0
2018-Apr-14 15:27N 45°38' W 122°43'0 0.0
2018-Apr-14 14:51N 45°38' W 122°43'0 0.0
2018-Apr-14 14:09N 45°38' W 122°43'0 0.0
2018-Apr-14 13:57N 45°38' W 122°43'0 0.0
2018-Apr-14 12:51N 45°38' W 122°43'0 0.0
2018-Apr-14 12:27N 45°38' W 122°43'0 0.0
2018-Apr-14 11:57N 45°38' W 122°43'0 0.0
2018-Apr-14 11:27N 45°38' W 122°43'0 0.0
2018-Apr-14 10:51N 45°38' W 122°43'0 0.0
2018-Apr-14 09:51N 45°38' W 122°43'0 0.0
2018-Apr-14 08:51N 45°38' W 122°43'0 0.0
2018-Apr-14 08:27N 45°38' W 122°43'0 0.0
2018-Apr-14 07:51N 45°38' W 122°43'0 0.0
2018-Apr-14 07:27N 45°38' W 122°43'0 0.0
2018-Apr-14 06:51N 45°38' W 122°43'0 0.0
2018-Apr-14 06:27N 45°38' W 122°43'0 0.0
2018-Apr-14 05:39N 45°38' W 122°43'0 0.0
2018-Apr-14 05:21N 45°38' W 122°43'0 0.0
2018-Apr-14 04:45N 45°38' W 122°43'0 0.0
2018-Apr-14 04:21N 45°38' W 122°43'0 0.0
2018-Apr-14 03:45N 45°38' W 122°43'0 0.0
2018-Apr-14 03:21N 45°38' W 122°43'0 0.0
2018-Apr-14 02:51N 45°38' W 122°43'0 0.0
2018-Apr-14 02:27N 45°38' W 122°43'0 0.0
2018-Apr-14 01:57N 45°38' W 122°43'0 0.0
2018-Apr-14 01:27N 45°38' W 122°43'0 0.0
2018-Apr-14 00:45N 45°38' W 122°43'0 0.0
2018-Apr-14 00:21N 45°38' W 122°43'0 0.0
2018-Apr-13 23:57N 45°38' W 122°43'0 0.0
2018-Apr-13 22:51N 45°38' W 122°43'0 0.0
2018-Apr-13 21:51N 45°38' W 122°43'0 0.0
2018-Apr-13 21:21N 45°38' W 122°43'0 0.0
2018-Apr-13 20:45N 45°38' W 122°43'0 0.0
2018-Apr-13 20:27N 45°38' W 122°43'0 0.0
2018-Apr-13 19:57N 45°38' W 122°43'0 0.0
2018-Apr-13 19:27N 45°38' W 122°43'0 0.0
2018-Apr-13 18:57N 45°38' W 122°43'0 0.0
2018-Apr-13 18:09N 45°38' W 122°43'0 0.0
2018-Apr-13 17:57N 45°38' W 122°43'0 0.0
2018-Apr-13 17:15N 45°38' W 122°43'0 0.0
2018-Apr-13 16:33N 45°38' W 122°43'0 0.0
2018-Apr-13 15:27N 45°38' W 122°43'0 0.0
2018-Apr-13 14:51N 45°38' W 122°43'0 0.0
2018-Apr-13 14:15N 45°38' W 122°43'0 0.0
2018-Apr-13 13:51N 45°38' W 122°43'0 0.0
2018-Apr-13 13:21N 45°38' W 122°43'0 0.0
2018-Apr-13 12:51N 45°38' W 122°43'0 0.0
2018-Apr-13 12:27N 45°38' W 122°43'0 0.0
2018-Apr-13 11:57N 45°38' W 122°43'0 0.0
2018-Apr-13 11:21N 45°38' W 122°43'0 0.0
2018-Apr-13 10:57N 45°38' W 122°43'0 0.0
2018-Apr-13 10:09N 45°38' W 122°43'0 0.0
2018-Apr-13 09:57N 45°38' W 122°43'0 0.0
2018-Apr-13 09:27N 45°38' W 122°43'0 0.0
2018-Apr-13 08:57N 45°38' W 122°43'0 0.0
2018-Apr-13 08:27N 45°38' W 122°43'0 0.0
2018-Apr-13 07:57N 45°38' W 122°43'0 0.0
2018-Apr-13 07:27N 45°38' W 122°43'0 0.0
2018-Apr-13 06:57N 45°38' W 122°43'0 0.0
2018-Apr-13 06:21N 45°38' W 122°43'0 0.0
2018-Apr-13 05:57N 45°38' W 122°43'0 0.0
2018-Apr-13 05:27N 45°38' W 122°43'0 0.0
2018-Apr-13 04:57N 45°38' W 122°43'0 0.0
2018-Apr-13 04:27N 45°38' W 122°43'0 0.0
2018-Apr-13 03:45N 45°38' W 122°43'0 0.0
2018-Apr-13 03:15N 45°38' W 122°43'0 0.0
2018-Apr-13 02:51N 45°38' W 122°43'0 0.0
2018-Apr-13 02:27N 45°38' W 122°43'0 0.0
2018-Apr-13 01:57N 45°38' W 122°43'0 0.0
2018-Apr-13 01:21N 45°38' W 122°43'0 0.0
2018-Apr-13 00:51N 45°38' W 122°43'0 0.0
2018-Apr-13 00:27N 45°38' W 122°43'0 0.0
2018-Apr-12 23:45N 45°38' W 122°43'0 0.0
2018-Apr-12 23:27N 45°38' W 122°43'0 0.0
2018-Apr-12 22:33N 45°38' W 122°43'0 0.0
2018-Apr-12 22:27N 45°38' W 122°43'0 0.0
2018-Apr-12 21:51N 45°38' W 122°43'0 0.0
2018-Apr-12 21:21N 45°38' W 122°43'0 0.0
2018-Apr-12 20:33N 45°38' W 122°43'0 0.0
2018-Apr-12 20:15N 45°38' W 122°43'0 0.0
2018-Apr-12 19:57N 45°38' W 122°43'0 0.0
2018-Apr-12 19:27N 45°38' W 122°43'0 0.0
2018-Apr-12 18:51N 45°38' W 122°43'0 0.0
2018-Apr-12 18:15N 45°38' W 122°43'0 0.0
2018-Apr-12 17:39N 45°38' W 122°43'0 0.0
2018-Apr-12 17:27N 45°38' W 122°43'0 0.0
2018-Apr-12 16:51N 45°38' W 122°43'0 0.0
2018-Apr-12 16:27N 45°38' W 122°43'0 0.0
2018-Apr-12 15:39N 45°38' W 122°43'0 0.0
2018-Apr-12 15:21N 45°38' W 122°43'0 0.0
2018-Apr-12 14:57N 45°38' W 122°43'0 0.0
2018-Apr-12 14:27N 45°38' W 122°43'0 0.0
2018-Apr-12 13:45N 45°38' W 122°43'0 0.0
2018-Apr-12 13:27N 45°38' W 122°43'0 0.0
2018-Apr-12 12:57N 45°38' W 122°43'0 0.0
2018-Apr-12 12:27N 45°38' W 122°43'0 0.0
2018-Apr-12 11:51N 45°38' W 122°43'0 0.0
2018-Apr-12 11:21N 45°38' W 122°43'0 0.0
2018-Apr-12 10:57N 45°38' W 122°43'0 0.0
2018-Apr-12 10:15N 45°38' W 122°43'0 0.0
2018-Apr-12 09:27N 45°38' W 122°43'0 0.0
2018-Apr-12 08:51N 45°38' W 122°43'0 0.0
2018-Apr-12 08:21N 45°38' W 122°43'0 0.0
2018-Apr-12 07:51N 45°38' W 122°43'0 0.0
2018-Apr-12 07:27N 45°38' W 122°43'0 0.0
2018-Apr-12 06:57N 45°38' W 122°43'0 0.0
2018-Apr-12 06:27N 45°38' W 122°43'0 0.0
2018-Apr-12 05:45N 45°38' W 122°43'0 0.0
2018-Apr-12 05:27N 45°38' W 122°43'0 0.0
2018-Apr-12 04:51N 45°38' W 122°43'0 0.0
2018-Apr-12 04:27N 45°38' W 122°43'0 0.0
2018-Apr-12 03:21N 45°38' W 122°43'0 0.0
2018-Apr-12 02:57N 45°38' W 122°43'0 0.0
2018-Apr-12 01:51N 45°38' W 122°43'0 0.0
2018-Apr-12 01:27N 45°38' W 122°43'0 0.0
2018-Apr-12 00:51N 45°38' W 122°43'0 0.0
2018-Apr-12 00:21N 45°38' W 122°43'0 0.0
2018-Apr-11 23:51N 45°38' W 122°43'0 0.0
2018-Apr-11 23:03N 45°38' W 122°43'0 0.0
2018-Apr-11 22:45N 45°38' W 122°43'0 0.0
2018-Apr-11 22:21N 45°38' W 122°43'0 0.0
2018-Apr-11 21:57N 45°38' W 122°43'0 0.0
2018-Apr-11 21:27N 45°38' W 122°43'0 0.0
2018-Apr-11 20:51N 45°38' W 122°43'  

Dump ship's entire track history